Eastport, Michigan
Current Conditions -  °F | °C
As of 7:28 AM on Sunday 23 Nov 2014 (Local Time) from KACB Reporting Station
Haze Haze  
Wind Chill: 41°   Ceiling: 1100
Heat Index: 45°   Visibility: 5mi
Dew Point: 44°   Wind: 7mph
Humidity: 95%   Direction: 190°S
Pressure: 29.74"   Gusts: NA
Location:  45.11°N, 85.35°W
Report Text: KACB 231228Z AUTO 19006KT 5SM BR OVC011 07/06 A2974 RMK AO2 T00710064
Loading
Personal Weather Stations






























Interactive Weather Map New forecast layout! Learn more

10-Day Weather Forecast

Advertisements
Track Severe Weather on mobile